createdAt,value
2022-11-07T00:00:14.483Z,20.75
2022-11-07T00:03:17.555Z,22.83
2022-11-07T00:06:20.763Z,17.98
2022-11-07T00:09:26.605Z,21.75
2022-11-07T00:12:29.917Z,19.30
2022-11-07T00:15:32.831Z,24.85
2022-11-07T00:18:36.445Z,23.00
2022-11-07T00:21:46.067Z,22.60
2022-11-07T00:24:51.950Z,24.52
2022-11-07T00:27:54.792Z,20.77
2022-11-07T00:30:59.415Z,22.55
2022-11-07T00:34:02.163Z,24.23
2022-11-07T00:37:05.905Z,22.05
2022-11-07T00:40:09.748Z,19.73
2022-11-07T00:43:12.822Z,19.05
2022-11-07T00:46:16.957Z,18.62
2022-11-07T00:49:19.801Z,20.07
2022-11-07T00:52:25.599Z,21.00
2022-11-07T00:55:28.323Z,20.15
2022-11-07T00:58:35.013Z,21.67
2022-11-07T01:01:37.957Z,17.20
2022-11-07T01:05:02.291Z,17.77
2022-11-07T01:08:05.595Z,18.12
2022-11-07T01:11:08.765Z,18.30
2022-11-07T01:14:12.524Z,20.37
2022-11-07T01:17:15.321Z,18.33
2022-11-07T01:20:18.254Z,16.10
2022-11-07T01:23:22.903Z,19.62
2022-11-07T01:26:25.733Z,17.83
2022-11-07T01:29:28.619Z,19.00
2022-11-07T01:32:31.918Z,18.75
2022-11-07T01:35:35.385Z,18.17
2022-11-07T01:38:40.070Z,16.92
2022-11-07T01:41:45.950Z,17.83
2022-11-07T01:44:57.872Z,21.42
2022-11-07T01:48:02.103Z,19.73
2022-11-07T01:51:05.380Z,19.70
2022-11-07T01:54:08.531Z,19.92
2022-11-07T01:57:38.660Z,18.70
2022-11-07T02:00:41.580Z,19.75
2022-11-07T02:03:44.569Z,22.25
2022-11-07T02:07:04.847Z,21.83
2022-11-07T02:10:09.096Z,20.20
2022-11-07T02:13:30.178Z,19.83
2022-11-07T02:16:35.177Z,17.95
2022-11-07T02:19:43.231Z,21.23
2022-11-07T02:22:56.033Z,19.60
2022-11-07T02:25:58.910Z,18.48
2022-11-07T02:29:04.338Z,18.37
2022-11-07T02:32:09.543Z,23.45
2022-11-07T02:35:38.920Z,19.17
2022-11-07T02:38:42.098Z,21.33
2022-11-07T02:41:48.552Z,22.80
2022-11-07T02:44:53.408Z,23.50
2022-11-07T02:47:56.392Z,17.10
2022-11-07T02:51:02.212Z,17.10
2022-11-07T02:54:08.110Z,22.10
2022-11-07T02:57:11.971Z,16.55
2022-11-07T03:00:16.159Z,20.00
2022-11-07T03:03:18.896Z,18.30
2022-11-07T03:06:26.350Z,19.40
2022-11-07T03:09:29.461Z,20.33
2022-11-07T03:12:32.335Z,14.57
2022-11-07T03:15:35.925Z,21.20
2022-11-07T03:18:41.803Z,17.52
2022-11-07T03:21:44.590Z,17.33
2022-11-07T03:24:47.321Z,21.03
2022-11-07T03:27:50.751Z,19.83
2022-11-07T03:30:53.908Z,18.12
2022-11-07T03:33:56.719Z,21.67
2022-11-07T03:36:59.634Z,17.30
2022-11-07T03:40:02.572Z,15.90
2022-11-07T03:43:05.383Z,17.77
2022-11-07T03:46:08.293Z,18.48
2022-11-07T03:49:14.313Z,16.48
2022-11-07T03:52:20.067Z,16.25
2022-11-07T03:55:26.040Z,15.00
2022-11-07T03:58:29.903Z,18.02
2022-11-07T04:01:33.057Z,15.55
2022-11-07T04:04:35.966Z,16.37
2022-11-07T04:07:38.805Z,17.73
2022-11-07T04:10:41.827Z,22.17
2022-11-07T04:14:05.891Z,18.95
2022-11-07T04:17:20.798Z,18.33
2022-11-07T04:20:28.132Z,18.12
2022-11-07T04:23:30.937Z,17.00
2022-11-07T04:26:52.225Z,16.30
2022-11-07T04:29:58.103Z,15.82
2022-11-07T04:33:02.213Z,15.18
2022-11-07T04:36:08.393Z,16.20
2022-11-07T04:39:11.308Z,19.55
2022-11-07T04:42:14.329Z,18.97
2022-11-07T04:45:17.957Z,28.62
2022-11-07T04:48:21.250Z,63.35
2022-11-07T04:51:24.761Z,46.35
2022-11-07T04:54:27.708Z,27.80
2022-11-07T04:57:30.536Z,36.73
2022-11-07T05:00:33.895Z,28.90
2022-11-07T05:03:41.601Z,26.58
2022-11-07T05:06:44.801Z,25.77
2022-11-07T05:09:47.837Z,21.95
2022-11-07T05:12:51.192Z,25.27
2022-11-07T05:15:54.057Z,23.17
2022-11-07T05:18:56.991Z,24.73
2022-11-07T05:22:18.148Z,30.88
2022-11-07T05:25:20.995Z,30.90
2022-11-07T05:28:38.334Z,29.83
2022-11-07T05:31:42.327Z,32.95
2022-11-07T05:34:45.249Z,33.88
2022-11-07T05:37:48.951Z,29.85
2022-11-07T05:40:51.671Z,31.62
2022-11-07T05:43:54.562Z,35.63
2022-11-07T05:46:58.372Z,27.20
2022-11-07T05:50:01.174Z,25.83
2022-11-07T05:53:04.818Z,27.48
2022-11-07T05:56:07.720Z,25.88
2022-11-07T05:59:11.493Z,27.90
2022-11-07T06:02:14.648Z,24.23
2022-11-07T06:05:21.743Z,26.15
2022-11-07T06:08:27.018Z,24.40
2022-11-07T06:11:30.490Z,25.25
2022-11-07T06:14:33.364Z,21.00
2022-11-07T06:17:36.357Z,27.08
2022-11-07T06:20:39.885Z,25.75
2022-11-07T06:23:43.118Z,25.58
2022-11-07T06:26:45.995Z,29.45
2022-11-07T06:29:48.893Z,26.10
2022-11-07T06:32:51.882Z,23.48
2022-11-07T06:35:54.678Z,23.45
2022-11-07T06:38:57.469Z,26.87
2022-11-07T06:42:00.368Z,24.17
2022-11-07T06:45:04.404Z,23.60
2022-11-07T06:48:07.792Z,26.08
2022-11-07T06:51:11.252Z,23.10
2022-11-07T06:54:14.482Z,27.02
2022-11-07T06:57:17.917Z,22.02
2022-11-07T07:00:20.852Z,19.30
2022-11-07T07:03:23.678Z,20.10
2022-11-07T07:06:26.999Z,24.52
2022-11-07T07:09:29.991Z,22.45
2022-11-07T07:12:32.777Z,20.33
2022-11-07T07:15:49.983Z,20.20
2022-11-07T07:18:53.579Z,23.12
2022-11-07T07:21:57.473Z,20.60
2022-11-07T07:25:01.626Z,18.73
2022-11-07T07:28:04.722Z,21.52
2022-11-07T07:31:13.912Z,20.40
2022-11-07T07:34:16.898Z,20.92
2022-11-07T07:37:19.830Z,20.88
2022-11-07T07:40:24.087Z,23.62
2022-11-07T07:43:31.064Z,20.52
2022-11-07T07:46:33.909Z,19.93
2022-11-07T07:49:36.862Z,19.35
2022-11-07T07:52:40.353Z,22.05
2022-11-07T07:55:43.448Z,22.80
2022-11-07T07:58:46.786Z,24.27
2022-11-07T08:01:55.183Z,22.23
2022-11-07T08:04:59.627Z,22.60
2022-11-07T08:08:02.591Z,23.00
2022-11-07T08:11:07.984Z,25.30
2022-11-07T08:14:11.871Z,21.50
2022-11-07T08:17:14.779Z,23.20
2022-11-07T08:20:24.853Z,25.30
2022-11-07T08:23:27.946Z,22.77
2022-11-07T08:26:31.643Z,25.65
2022-11-07T08:29:34.488Z,20.70
2022-11-07T08:32:38.020Z,20.03
2022-11-07T08:35:42.720Z,22.33
2022-11-07T08:38:46.242Z,23.77
2022-11-07T08:41:49.422Z,26.27
2022-11-07T08:44:52.452Z,22.08
2022-11-07T08:47:59.412Z,25.40
2022-11-07T08:51:03.403Z,25.73
2022-11-07T08:54:06.352Z,23.77
2022-11-07T08:57:09.192Z,23.10
2022-11-07T09:00:12.567Z,21.80
2022-11-07T09:03:48.909Z,23.57
2022-11-07T09:06:41.306Z,25.92
2022-11-07T09:09:44.216Z,23.00
2022-11-07T09:12:49.422Z,28.10
2022-11-07T09:15:57.362Z,21.00
2022-11-07T09:19:00.147Z,20.47
2022-11-07T09:22:03.062Z,22.13
2022-11-07T09:25:06.186Z,20.85
2022-11-07T09:28:18.114Z,21.00
2022-11-07T09:31:21.449Z,19.52
2022-11-07T09:34:24.337Z,21.27
2022-11-07T09:37:28.481Z,23.00
2022-11-07T09:41:13.565Z,19.83
2022-11-07T09:44:41.375Z,19.10
2022-11-07T09:47:52.265Z,19.73
2022-11-07T09:50:55.929Z,17.03
2022-11-07T09:54:01.664Z,20.45
2022-11-07T09:57:04.646Z,16.98
2022-11-07T10:00:18.664Z,15.93
2022-11-07T10:03:24.200Z,18.02
2022-11-07T10:06:33.419Z,20.70
2022-11-07T10:09:42.447Z,18.85
2022-11-07T10:13:07.215Z,17.73
2022-11-07T10:16:27.204Z,20.50
2022-11-07T10:19:38.768Z,17.83
2022-11-07T10:23:18.528Z,18.33
2022-11-07T10:26:24.702Z,19.55
2022-11-07T10:29:48.223Z,17.67
2022-11-07T10:33:18.905Z,16.75
2022-11-07T10:36:27.680Z,16.37
2022-11-07T10:39:31.364Z,15.93
2022-11-07T10:42:34.772Z,18.45
2022-11-07T10:45:40.724Z,17.50
2022-11-07T10:48:55.027Z,16.12
2022-11-07T10:52:18.559Z,14.48
2022-11-07T10:55:21.551Z,15.30
2022-11-07T10:58:29.396Z,16.87
2022-11-07T11:01:32.462Z,15.98
2022-11-07T11:04:38.368Z,14.18
2022-11-07T11:07:41.848Z,15.18
2022-11-07T11:10:44.922Z,16.13
2022-11-07T11:14:00.889Z,12.90
2022-11-07T11:17:04.122Z,17.85
2022-11-07T11:20:19.815Z,13.00
2022-11-07T11:23:25.063Z,13.18
2022-11-07T11:26:33.149Z,13.80
2022-11-07T11:29:56.162Z,15.18
2022-11-07T11:33:07.998Z,14.87
2022-11-07T11:36:15.868Z,18.02
2022-11-07T11:39:29.326Z,17.02
2022-11-07T11:42:50.825Z,13.30
2022-11-07T11:46:09.939Z,15.93
2022-11-07T11:49:17.302Z,16.17
2022-11-07T11:52:23.173Z,12.43
2022-11-07T11:55:31.620Z,13.88
2022-11-07T11:58:48.909Z,12.83
2022-11-07T12:02:33.198Z,15.10
2022-11-07T12:05:57.416Z,12.77
2022-11-07T12:09:06.941Z,13.65
2022-11-07T12:12:36.545Z,13.62
2022-11-07T12:15:51.285Z,14.57
2022-11-07T12:18:57.774Z,13.95
2022-11-07T12:22:14.231Z,16.58
2022-11-07T12:25:40.992Z,13.35
2022-11-07T12:29:05.506Z,11.90
2022-11-07T12:32:15.336Z,11.73
2022-11-07T12:35:33.968Z,14.00
2022-11-07T12:38:55.401Z,12.45
2022-11-07T12:42:22.114Z,12.95
2022-11-07T12:45:58.822Z,14.60
2022-11-07T12:49:39.124Z,12.23
2022-11-07T12:52:57.395Z,11.32
2022-11-07T12:56:14.030Z,12.18
2022-11-07T12:59:24.391Z,12.20
2022-11-07T13:02:30.438Z,12.95
2022-11-07T13:06:06.197Z,10.93
2022-11-07T13:09:30.522Z,13.32
2022-11-07T13:12:59.821Z,10.98
2022-11-07T13:16:23.129Z,11.98
2022-11-07T13:19:33.426Z,10.90
2022-11-07T13:22:38.577Z,11.43
2022-11-07T13:25:41.628Z,14.18
2022-11-07T13:28:59.579Z,13.40
2022-11-07T13:32:13.398Z,14.00
2022-11-07T13:35:28.426Z,11.98
2022-11-07T13:38:31.929Z,11.60
2022-11-07T13:41:35.247Z,11.38
2022-11-07T13:44:38.630Z,14.35
2022-11-07T13:47:42.177Z,11.50
2022-11-07T13:50:50.232Z,11.20
2022-11-07T13:54:16.093Z,12.00
2022-11-07T13:57:31.915Z,10.35
2022-11-07T14:00:35.025Z,13.25
2022-11-07T14:03:38.402Z,11.15
2022-11-07T14:06:41.558Z,12.35
2022-11-07T14:09:44.754Z,10.70
2022-11-07T14:12:48.183Z,13.98
2022-11-07T14:15:55.482Z,12.57
2022-11-07T14:19:01.031Z,10.75
2022-11-07T14:22:03.949Z,13.10
2022-11-07T14:25:31.110Z,12.80
2022-11-07T14:28:39.216Z,11.05
2022-11-07T14:31:42.527Z,9.77
2022-11-07T14:34:47.305Z,15.18
2022-11-07T14:37:50.660Z,9.75
2022-11-07T14:40:55.890Z,9.73
2022-11-07T14:44:03.372Z,13.27
2022-11-07T14:47:08.669Z,10.63
2022-11-07T14:50:29.722Z,10.18
2022-11-07T14:53:47.240Z,11.95
2022-11-07T14:56:56.076Z,9.17
2022-11-07T14:59:59.157Z,11.48
2022-11-07T15:03:02.201Z,12.77
2022-11-07T15:06:05.867Z,11.25
2022-11-07T15:09:09.387Z,11.27
2022-11-07T15:12:18.915Z,12.20
2022-11-07T15:15:36.267Z,9.93
2022-11-07T15:18:42.940Z,10.18
2022-11-07T15:22:22.026Z,13.60
2022-11-07T15:25:34.489Z,14.05
2022-11-07T15:28:48.174Z,12.17
2022-11-07T15:31:51.285Z,10.32
2022-11-07T15:35:23.020Z,10.60
2022-11-07T15:38:27.040Z,12.75
2022-11-07T15:41:29.919Z,14.30
2022-11-07T15:44:32.991Z,16.93
2022-11-07T15:47:36.042Z,13.18
2022-11-07T15:50:43.357Z,11.85
2022-11-07T15:53:46.183Z,11.57
2022-11-07T15:56:50.127Z,14.87
2022-11-07T15:59:55.403Z,15.30
2022-11-07T16:02:59.173Z,12.93
2022-11-07T16:06:02.941Z,13.35
2022-11-07T16:09:13.269Z,14.45
2022-11-07T16:12:19.780Z,12.40
2022-11-07T16:15:24.354Z,14.90
2022-11-07T16:18:27.879Z,24.50
2022-11-07T16:21:31.077Z,18.35
2022-11-07T16:24:34.021Z,14.98
2022-11-07T16:27:36.844Z,15.88
2022-11-07T16:30:39.877Z,20.43
2022-11-07T16:33:43.033Z,15.02
2022-11-07T16:36:47.611Z,18.67
2022-11-07T16:39:50.780Z,20.67
2022-11-07T16:42:53.612Z,17.08
2022-11-07T16:45:57.529Z,18.23
2022-11-07T16:49:13.759Z,17.27
2022-11-07T16:52:18.435Z,18.95
2022-11-07T16:55:21.329Z,21.12
2022-11-07T16:58:33.984Z,18.87
2022-11-07T17:01:37.158Z,24.83
2022-11-07T17:04:40.421Z,24.30
2022-11-07T17:07:43.601Z,24.92
2022-11-07T17:10:47.138Z,18.90
2022-11-07T17:13:50.271Z,19.98
2022-11-07T17:16:53.306Z,22.33
2022-11-07T17:19:57.417Z,24.85
2022-11-07T17:23:00.890Z,29.95
2022-11-07T17:26:03.923Z,22.17
2022-11-07T17:29:10.622Z,28.55
2022-11-07T17:32:13.412Z,26.77
2022-11-07T17:35:31.619Z,30.92
2022-11-07T17:38:38.197Z,39.35
2022-11-07T17:41:45.423Z,48.80
2022-11-07T17:44:50.325Z,41.88
2022-11-07T17:47:54.679Z,50.67
2022-11-07T17:50:58.421Z,48.97
2022-11-07T17:54:01.579Z,46.97
2022-11-07T17:57:09.242Z,45.38
2022-11-07T18:00:19.454Z,51.83
2022-11-07T18:03:22.349Z,59.70
2022-11-07T18:06:26.497Z,53.78
2022-11-07T18:09:29.429Z,57.15
2022-11-07T18:12:32.331Z,60.47
2022-11-07T18:15:35.338Z,63.42
2022-11-07T18:18:38.633Z,69.17
2022-11-07T18:21:41.944Z,70.05
2022-11-07T18:24:46.934Z,58.97
2022-11-07T18:27:50.031Z,66.62
2022-11-07T18:30:52.969Z,65.55
2022-11-07T18:33:58.419Z,62.50
2022-11-07T18:37:01.805Z,66.43
2022-11-07T18:40:08.237Z,69.45
2022-11-07T18:43:12.030Z,77.12
2022-11-07T18:46:17.742Z,71.80
2022-11-07T18:49:20.679Z,74.47
2022-11-07T18:52:23.879Z,71.62
2022-11-07T18:55:27.730Z,72.85
2022-11-07T18:58:32.981Z,80.30
2022-11-07T19:01:36.359Z,92.22
2022-11-07T19:04:40.547Z,96.77
2022-11-07T19:07:45.202Z,91.20
2022-11-07T19:10:48.697Z,85.87
2022-11-07T19:13:53.225Z,88.25
2022-11-07T19:16:59.853Z,93.97
2022-11-07T19:20:04.552Z,87.43
2022-11-07T19:23:08.534Z,90.07
2022-11-07T19:26:12.883Z,96.70
2022-11-07T19:29:17.118Z,94.60
2022-11-07T19:32:20.344Z,94.72
2022-11-07T19:35:26.697Z,84.93
2022-11-07T19:38:34.405Z,93.35
2022-11-07T19:41:38.115Z,89.68
2022-11-07T19:44:46.396Z,87.20
2022-11-07T19:47:55.300Z,99.35
2022-11-07T19:50:58.515Z,95.17
2022-11-07T19:54:01.676Z,96.40
2022-11-07T19:57:04.518Z,93.37
2022-11-07T20:00:09.113Z,90.93
2022-11-07T20:03:12.346Z,88.85
2022-11-07T20:06:17.520Z,89.17
2022-11-07T20:09:21.031Z,86.28
2022-11-07T20:12:24.840Z,88.35
2022-11-07T20:15:28.177Z,87.55
2022-11-07T20:18:31.753Z,86.95
2022-11-07T20:21:35.107Z,84.73
2022-11-07T20:24:40.075Z,87.25
2022-11-07T20:27:43.326Z,90.43
2022-11-07T20:30:47.682Z,80.20
2022-11-07T20:33:51.868Z,92.45
2022-11-07T20:36:56.227Z,83.33
2022-11-07T20:40:00.010Z,89.03
2022-11-07T20:43:03.292Z,91.10
2022-11-07T20:46:09.812Z,100.47
2022-11-07T20:49:14.845Z,95.45
2022-11-07T20:52:17.828Z,99.37
2022-11-07T20:55:20.879Z,94.87
2022-11-07T20:58:26.795Z,102.12
2022-11-07T21:01:36.441Z,93.35
2022-11-07T21:05:03.039Z,106.95
2022-11-07T21:08:04.271Z,88.40
2022-11-07T21:11:07.593Z,91.55
2022-11-07T21:14:10.890Z,93.60
2022-11-07T21:17:17.056Z,96.30
2022-11-07T21:20:20.760Z,92.90
2022-11-07T21:23:27.207Z,103.27
2022-11-07T21:26:36.207Z,95.93
2022-11-07T21:29:38.930Z,93.62
2022-11-07T21:32:43.401Z,96.85
2022-11-07T21:35:46.278Z,113.40
2022-11-07T21:38:49.251Z,109.83
2022-11-07T21:41:55.133Z,141.15
2022-11-07T21:44:58.163Z,140.43
2022-11-07T21:48:01.020Z,129.93
2022-11-07T21:51:20.593Z,126.35
2022-11-07T21:54:23.455Z,119.97
2022-11-07T21:57:26.504Z,118.03
2022-11-07T22:00:33.120Z,110.28
2022-11-07T22:04:04.729Z,116.95
2022-11-07T22:07:04.744Z,108.97
2022-11-07T22:10:08.342Z,114.00
2022-11-07T22:13:11.214Z,108.00
2022-11-07T22:16:19.663Z,104.78
2022-11-07T22:19:22.490Z,102.35
2022-11-07T22:22:25.335Z,94.68
2022-11-07T22:25:28.433Z,102.43
2022-11-07T22:28:31.887Z,101.20
2022-11-07T22:31:34.997Z,105.85
2022-11-07T22:34:37.835Z,96.50
2022-11-07T22:37:40.710Z,96.43
2022-11-07T22:40:47.517Z,100.77
2022-11-07T22:43:51.166Z,112.43
2022-11-07T22:46:57.013Z,112.70
2022-11-07T22:50:06.658Z,91.75
2022-11-07T22:53:10.826Z,89.72
2022-11-07T22:56:20.205Z,81.50
2022-11-07T22:59:23.123Z,81.22
2022-11-07T23:02:25.952Z,82.47
2022-11-07T23:05:28.919Z,72.97
2022-11-07T23:08:35.299Z,67.95
2022-11-07T23:11:46.934Z,69.33
2022-11-07T23:14:50.636Z,71.35
2022-11-07T23:17:56.351Z,71.50
2022-11-07T23:21:12.529Z,72.03
2022-11-07T23:24:15.436Z,69.53
2022-11-07T23:27:18.991Z,58.67
2022-11-07T23:30:24.970Z,58.75
2022-11-07T23:33:28.033Z,55.70
2022-11-07T23:36:31.049Z,64.28
2022-11-07T23:39:33.851Z,55.08
2022-11-07T23:42:36.657Z,57.13
2022-11-07T23:45:57.919Z,53.03
2022-11-07T23:49:19.355Z,51.30
2022-11-07T23:52:22.225Z,56.28
2022-11-07T23:55:40.099Z,49.40
2022-11-07T23:59:01.403Z,51.20
